Lickingville, Pennsylvania
Current Conditions -  °F | °C
As of 12:15 AM on Saturday 29 Nov 2014 (Local Time) from KFKL Reporting Station
Overcast Overcast  
Wind Chill: 14°   Ceiling: 3700
Heat Index: 23°   Visibility: 8mi
Dew Point: 18°   Wind: 8mph
Humidity: 80%   Direction: 180°S
Pressure: 30.16"   Gusts: NA
Location:  41.38°N, 79.37°W
Report Text: KFKL 290515Z AUTO 18007KT 8SM SCT030 BKN037 OVC044 M05/M08 A3016 RMK AO1
Loading
Personal Weather Stations






























Interactive Weather Map New forecast layout! Learn more

10-Day Weather Forecast

Advertisements
Track Severe Weather on mobile